sensor_id;sensor_type;location;lat;lon;timestamp;temperature;humidity
20566;DHT22;10441;50.884;12.064;2022-09-09T00:01:14;11.90;99.90
20566;DHT22;10441;50.884;12.064;2022-09-09T00:03:47;12.00;1.00
20566;DHT22;10441;50.884;12.064;2022-09-09T00:06:17;12.20;1.00
20566;DHT22;10441;50.884;12.064;2022-09-09T00:08:49;12.20;1.00
20566;DHT22;10441;50.884;12.064;2022-09-09T00:11:20;12.10;1.00
20566;DHT22;10441;50.884;12.064;2022-09-09T00:13:50;12.00;99.90
20566;DHT22;10441;50.884;12.064;2022-09-09T00:16:19;11.90;99.90
20566;DHT22;10441;50.884;12.064;2022-09-09T00:18:52;12.00;1.00
20566;DHT22;10441;50.884;12.064;2022-09-09T00:21:22;12.00;99.90
20566;DHT22;10441;50.884;12.064;2022-09-09T00:23:52;11.90;99.90
20566;DHT22;10441;50.884;12.064;2022-09-09T00:26:22;11.90;99.90
20566;DHT22;10441;50.884;12.064;2022-09-09T00:28:52;11.90;1.00
20566;DHT22;10441;50.884;12.064;2022-09-09T00:31:23;11.90;1.00
20566;DHT22;10441;50.884;12.064;2022-09-09T00:33:51;12.00;1.00
20566;DHT22;10441;50.884;12.064;2022-09-09T00:36:20;12.00;1.00
20566;DHT22;10441;50.884;12.064;2022-09-09T00:38:49;12.10;81.00
20566;DHT22;10441;50.884;12.064;2022-09-09T00:41:21;12.10;99.90
20566;DHT22;10441;50.884;12.064;2022-09-09T00:43:55;12.30;1.00
20566;DHT22;10441;50.884;12.064;2022-09-09T00:46:30;12.40;1.00
20566;DHT22;10441;50.884;12.064;2022-09-09T00:49:01;12.50;1.00
20566;DHT22;10441;50.884;12.064;2022-09-09T00:51:34;12.50;1.00
20566;DHT22;10441;50.884;12.064;2022-09-09T00:54:13;12.50;8.20
20566;DHT22;10441;50.884;12.064;2022-09-09T00:56:42;12.40;1.00
20566;DHT22;10441;50.884;12.064;2022-09-09T00:59:16;12.50;1.00
20566;DHT22;10441;50.884;12.064;2022-09-09T01:01:47;12.60;99.90
20566;DHT22;10441;50.884;12.064;2022-09-09T01:04:16;12.60;99.90
20566;DHT22;10441;50.884;12.064;2022-09-09T01:06:45;12.70;99.90
20566;DHT22;10441;50.884;12.064;2022-09-09T01:09:18;12.60;99.90
20566;DHT22;10441;50.884;12.064;2022-09-09T01:11:49;12.50;99.90
20566;DHT22;10441;50.884;12.064;2022-09-09T01:14:29;12.50;99.90
20566;DHT22;10441;50.884;12.064;2022-09-09T01:16:59;12.60;99.90
20566;DHT22;10441;50.884;12.064;2022-09-09T01:19:33;12.50;1.00
20566;DHT22;10441;50.884;12.064;2022-09-09T01:22:05;12.30;99.90
20566;DHT22;10441;50.884;12.064;2022-09-09T01:24:35;12.40;1.00
20566;DHT22;10441;50.884;12.064;2022-09-09T01:27:06;12.20;99.90
20566;DHT22;10441;50.884;12.064;2022-09-09T01:29:33;12.30;99.90
20566;DHT22;10441;50.884;12.064;2022-09-09T01:32:00;12.30;92.20
20566;DHT22;10441;50.884;12.064;2022-09-09T01:34:28;12.30;1.00
20566;DHT22;10441;50.884;12.064;2022-09-09T01:36:57;12.30;1.00
20566;DHT22;10441;50.884;12.064;2022-09-09T01:39:25;12.30;1.00
20566;DHT22;10441;50.884;12.064;2022-09-09T01:41:52;12.30;1.00
20566;DHT22;10441;50.884;12.064;2022-09-09T01:44:21;12.40;19.20
20566;DHT22;10441;50.884;12.064;2022-09-09T01:46:48;12.40;1.00
20566;DHT22;10441;50.884;12.064;2022-09-09T01:49:15;12.30;1.00
20566;DHT22;10441;50.884;12.064;2022-09-09T01:51:43;12.40;1.00
20566;DHT22;10441;50.884;12.064;2022-09-09T01:54:10;12.50;99.90
20566;DHT22;10441;50.884;12.064;2022-09-09T01:56:40;12.50;99.90
20566;DHT22;10441;50.884;12.064;2022-09-09T01:59:14;12.60;99.90
20566;DHT22;10441;50.884;12.064;2022-09-09T02:01:58;12.60;3.00
20566;DHT22;10441;50.884;12.064;2022-09-09T02:04:33;12.60;23.40
20566;DHT22;10441;50.884;12.064;2022-09-09T02:07:02;12.50;51.00
20566;DHT22;10441;50.884;12.064;2022-09-09T02:09:30;12.70;1.00
20566;DHT22;10441;50.884;12.064;2022-09-09T02:11:57;12.50;32.20
20566;DHT22;10441;50.884;12.064;2022-09-09T02:14:27;12.30;99.90
20566;DHT22;10441;50.884;12.064;2022-09-09T02:16:59;12.30;99.90
20566;DHT22;10441;50.884;12.064;2022-09-09T02:19:29;12.20;99.90
20566;DHT22;10441;50.884;12.064;2022-09-09T02:21:59;12.20;99.90
20566;DHT22;10441;50.884;12.064;2022-09-09T02:24:26;12.30;99.90
20566;DHT22;10441;50.884;12.064;2022-09-09T02:26:54;12.20;99.90
20566;DHT22;10441;50.884;12.064;2022-09-09T02:29:23;12.10;1.00
20566;DHT22;10441;50.884;12.064;2022-09-09T02:31:51;12.00;99.90
20566;DHT22;10441;50.884;12.064;2022-09-09T02:34:23;11.70;1.00
20566;DHT22;10441;50.884;12.064;2022-09-09T02:36:50;11.70;99.90
20566;DHT22;10441;50.884;12.064;2022-09-09T02:39:17;11.50;1.00
20566;DHT22;10441;50.884;12.064;2022-09-09T02:41:44;11.30;1.00
20566;DHT22;10441;50.884;12.064;2022-09-09T02:44:13;11.30;99.90
20566;DHT22;10441;50.884;12.064;2022-09-09T02:46:53;11.20;99.90
20566;DHT22;10441;50.884;12.064;2022-09-09T02:49:25;11.30;99.90
20566;DHT22;10441;50.884;12.064;2022-09-09T02:51:56;11.30;1.00
20566;DHT22;10441;50.884;12.064;2022-09-09T02:54:27;11.40;1.00
20566;DHT22;10441;50.884;12.064;2022-09-09T02:56:57;11.20;1.00
20566;DHT22;10441;50.884;12.064;2022-09-09T02:59:28;11.30;1.00
20566;DHT22;10441;50.884;12.064;2022-09-09T03:01:56;11.30;1.00
20566;DHT22;10441;50.884;12.064;2022-09-09T03:04:22;11.40;1.00
20566;DHT22;10441;50.884;12.064;2022-09-09T03:06:51;11.30;1.00
20566;DHT22;10441;50.884;12.064;2022-09-09T03:09:18;11.30;1.00
20566;DHT22;10441;50.884;12.064;2022-09-09T03:11:44;11.30;1.00
20566;DHT22;10441;50.884;12.064;2022-09-09T03:14:11;11.30;1.00
20566;DHT22;10441;50.884;12.064;2022-09-09T03:16:38;11.20;1.00
20566;DHT22;10441;50.884;12.064;2022-09-09T03:19:05;11.40;1.00
20566;DHT22;10441;50.884;12.064;2022-09-09T03:21:32;11.60;1.00
20566;DHT22;10441;50.884;12.064;2022-09-09T03:24:01;11.70;1.00
20566;DHT22;10441;50.884;12.064;2022-09-09T03:26:28;11.60;99.90
20566;DHT22;10441;50.884;12.064;2022-09-09T03:28:55;11.70;54.30
20566;DHT22;10441;50.884;12.064;2022-09-09T03:31:22;11.70;99.90
20566;DHT22;10441;50.884;12.064;2022-09-09T03:33:49;11.60;1.00
20566;DHT22;10441;50.884;12.064;2022-09-09T03:36:16;11.60;1.00
20566;DHT22;10441;50.884;12.064;2022-09-09T03:38:43;11.60;99.90
20566;DHT22;10441;50.884;12.064;2022-09-09T03:41:11;11.60;97.20
20566;DHT22;10441;50.884;12.064;2022-09-09T03:43:38;11.60;1.00
20566;DHT22;10441;50.884;12.064;2022-09-09T03:46:04;11.60;1.00
20566;DHT22;10441;50.884;12.064;2022-09-09T03:48:32;11.60;99.90
20566;DHT22;10441;50.884;12.064;2022-09-09T03:50:58;11.60;99.90
20566;DHT22;10441;50.884;12.064;2022-09-09T03:53:27;11.70;99.90
20566;DHT22;10441;50.884;12.064;2022-09-09T03:55:55;11.70;1.00
20566;DHT22;10441;50.884;12.064;2022-09-09T03:58:26;11.60;1.00
20566;DHT22;10441;50.884;12.064;2022-09-09T04:00:55;11.70;99.90
20566;DHT22;10441;50.884;12.064;2022-09-09T04:03:22;11.50;99.90
20566;DHT22;10441;50.884;12.064;2022-09-09T04:05:50;11.50;1.00
20566;DHT22;10441;50.884;12.064;2022-09-09T04:08:17;11.60;1.00
20566;DHT22;10441;50.884;12.064;2022-09-09T04:10:44;11.50;99.90
20566;DHT22;10441;50.884;12.064;2022-09-09T04:13:12;11.50;99.90
20566;DHT22;10441;50.884;12.064;2022-09-09T04:15:42;11.50;31.90
20566;DHT22;10441;50.884;12.064;2022-09-09T04:18:10;11.40;1.00
20566;DHT22;10441;50.884;12.064;2022-09-09T04:20:39;11.40;99.90
20566;DHT22;10441;50.884;12.064;2022-09-09T04:23:07;11.50;1.00
20566;DHT22;10441;50.884;12.064;2022-09-09T04:25:35;11.50;99.90
20566;DHT22;10441;50.884;12.064;2022-09-09T04:28:04;11.60;1.00
20566;DHT22;10441;50.884;12.064;2022-09-09T04:30:32;11.70;1.00
20566;DHT22;10441;50.884;12.064;2022-09-09T04:33:02;11.80;99.90
20566;DHT22;10441;50.884;12.064;2022-09-09T04:35:30;11.90;1.00
20566;DHT22;10441;50.884;12.064;2022-09-09T04:37:57;12.00;99.90
20566;DHT22;10441;50.884;12.064;2022-09-09T04:40:25;12.10;1.00
20566;DHT22;10441;50.884;12.064;2022-09-09T04:42:53;12.30;99.90
20566;DHT22;10441;50.884;12.064;2022-09-09T04:45:24;12.40;99.90
20566;DHT22;10441;50.884;12.064;2022-09-09T04:47:52;12.50;98.40
20566;DHT22;10441;50.884;12.064;2022-09-09T04:50:20;12.50;40.50
20566;DHT22;10441;50.884;12.064;2022-09-09T04:52:48;12.60;1.00
20566;DHT22;10441;50.884;12.064;2022-09-09T04:55:15;12.70;1.00
20566;DHT22;10441;50.884;12.064;2022-09-09T04:57:42;12.80;1.00
20566;DHT22;10441;50.884;12.064;2022-09-09T05:00:10;12.80;1.00
20566;DHT22;10441;50.884;12.064;2022-09-09T05:02:40;12.90;1.00
20566;DHT22;10441;50.884;12.064;2022-09-09T05:05:11;13.00;1.00
20566;DHT22;10441;50.884;12.064;2022-09-09T05:07:44;13.00;1.00
20566;DHT22;10441;50.884;12.064;2022-09-09T05:10:13;13.10;1.00
20566;DHT22;10441;50.884;12.064;2022-09-09T05:12:51;13.10;1.00
20566;DHT22;10441;50.884;12.064;2022-09-09T05:15:21;13.10;1.00
20566;DHT22;10441;50.884;12.064;2022-09-09T05:17:51;13.20;1.00
20566;DHT22;10441;50.884;12.064;2022-09-09T05:20:22;13.30;1.00
20566;DHT22;10441;50.884;12.064;2022-09-09T05:22:56;13.30;1.00
20566;DHT22;10441;50.884;12.064;2022-09-09T05:25:23;13.30;1.00
20566;DHT22;10441;50.884;12.064;2022-09-09T05:27:52;13.30;1.00
20566;DHT22;10441;50.884;12.064;2022-09-09T05:30:23;13.60;1.00
20566;DHT22;10441;50.884;12.064;2022-09-09T05:32:55;13.70;1.00
20566;DHT22;10441;50.884;12.064;2022-09-09T05:35:23;13.60;1.00
20566;DHT22;10441;50.884;12.064;2022-09-09T05:37:53;13.60;1.00
20566;DHT22;10441;50.884;12.064;2022-09-09T05:40:22;13.60;1.00
20566;DHT22;10441;50.884;12.064;2022-09-09T05:42:50;13.70;1.00
20566;DHT22;10441;50.884;12.064;2022-09-09T05:45:20;13.80;1.00
20566;DHT22;10441;50.884;12.064;2022-09-09T05:47:51;13.80;1.00
20566;DHT22;10441;50.884;12.064;2022-09-09T05:50:19;13.90;1.00
20566;DHT22;10441;50.884;12.064;2022-09-09T05:52:46;14.00;1.00
20566;DHT22;10441;50.884;12.064;2022-09-09T05:55:17;14.00;1.00
20566;DHT22;10441;50.884;12.064;2022-09-09T05:57:48;14.00;1.00
20566;DHT22;10441;50.884;12.064;2022-09-09T06:00:15;14.00;1.00
20566;DHT22;10441;50.884;12.064;2022-09-09T06:02:42;14.00;1.00
20566;DHT22;10441;50.884;12.064;2022-09-09T06:05:09;14.70;1.00
20566;DHT22;10441;50.884;12.064;2022-09-09T06:07:36;14.10;1.00
20566;DHT22;10441;50.884;12.064;2022-09-09T06:10:03;14.10;1.00
20566;DHT22;10441;50.884;12.064;2022-09-09T06:12:31;14.20;1.00
20566;DHT22;10441;50.884;12.064;2022-09-09T06:14:58;14.30;1.00
20566;DHT22;10441;50.884;12.064;2022-09-09T06:17:25;14.40;1.00
20566;DHT22;10441;50.884;12.064;2022-09-09T06:19:54;14.50;1.00
20566;DHT22;10441;50.884;12.064;2022-09-09T06:22:21;14.40;1.00
20566;DHT22;10441;50.884;12.064;2022-09-09T06:24:47;14.40;1.00
20566;DHT22;10441;50.884;12.064;2022-09-09T06:27:15;14.50;1.00
20566;DHT22;10441;50.884;12.064;2022-09-09T06:29:44;14.50;1.00
20566;DHT22;10441;50.884;12.064;2022-09-09T06:32:11;14.50;1.00
20566;DHT22;10441;50.884;12.064;2022-09-09T06:34:37;14.60;1.00
20566;DHT22;10441;50.884;12.064;2022-09-09T06:37:04;14.70;1.00
20566;DHT22;10441;50.884;12.064;2022-09-09T06:39:32;14.70;1.00
20566;DHT22;10441;50.884;12.064;2022-09-09T06:41:59;14.80;1.00
20566;DHT22;10441;50.884;12.064;2022-09-09T06:44:25;14.80;1.00
20566;DHT22;10441;50.884;12.064;2022-09-09T06:46:54;14.90;1.00
20566;DHT22;10441;50.884;12.064;2022-09-09T06:49:21;14.90;1.00
20566;DHT22;10441;50.884;12.064;2022-09-09T06:51:48;14.90;1.00
20566;DHT22;10441;50.884;12.064;2022-09-09T06:54:17;14.90;1.00
20566;DHT22;10441;50.884;12.064;2022-09-09T06:56:45;14.90;1.00
20566;DHT22;10441;50.884;12.064;2022-09-09T06:59:12;14.90;1.00
20566;DHT22;10441;50.884;12.064;2022-09-09T07:01:39;15.00;1.00
20566;DHT22;10441;50.884;12.064;2022-09-09T07:04:10;15.10;1.00
20566;DHT22;10441;50.884;12.064;2022-09-09T07:06:40;15.20;1.00
20566;DHT22;10441;50.884;12.064;2022-09-09T07:09:12;15.30;1.00
20566;DHT22;10441;50.884;12.064;2022-09-09T07:11:42;15.50;1.00
20566;DHT22;10441;50.884;12.064;2022-09-09T07:14:17;15.70;1.00
20566;DHT22;10441;50.884;12.064;2022-09-09T07:16:46;16.00;1.00
20566;DHT22;10441;50.884;12.064;2022-09-09T07:19:15;16.30;1.00
20566;DHT22;10441;50.884;12.064;2022-09-09T07:21:43;16.60;1.00
20566;DHT22;10441;50.884;12.064;2022-09-09T07:24:12;16.80;1.00
20566;DHT22;10441;50.884;12.064;2022-09-09T07:26:39;17.10;1.00
20566;DHT22;10441;50.884;12.064;2022-09-09T07:29:06;17.20;1.00
20566;DHT22;10441;50.884;12.064;2022-09-09T07:31:34;17.50;1.00
20566;DHT22;10441;50.884;12.064;2022-09-09T07:34:02;17.20;1.00
20566;DHT22;10441;50.884;12.064;2022-09-09T07:36:31;17.00;1.00
20566;DHT22;10441;50.884;12.064;2022-09-09T07:38:59;17.10;1.00
20566;DHT22;10441;50.884;12.064;2022-09-09T07:41:26;17.30;1.00
20566;DHT22;10441;50.884;12.064;2022-09-09T07:43:54;17.30;1.00
20566;DHT22;10441;50.884;12.064;2022-09-09T07:46:22;17.50;99.90
20566;DHT22;10441;50.884;12.064;2022-09-09T07:48:50;17.50;99.90
20566;DHT22;10441;50.884;12.064;2022-09-09T07:51:18;18.20;99.90
20566;DHT22;10441;50.884;12.064;2022-09-09T07:53:46;18.50;99.90
20566;DHT22;10441;50.884;12.064;2022-09-09T07:56:14;18.30;99.90
20566;DHT22;10441;50.884;12.064;2022-09-09T07:58:42;18.30;99.90
20566;DHT22;10441;50.884;12.064;2022-09-09T08:01:09;18.50;99.90
20566;DHT22;10441;50.884;12.064;2022-09-09T08:03:37;18.60;99.90
20566;DHT22;10441;50.884;12.064;2022-09-09T08:06:04;18.50;99.90
20566;DHT22;10441;50.884;12.064;2022-09-09T08:08:32;18.60;99.90
20566;DHT22;10441;50.884;12.064;2022-09-09T08:11:05;18.60;99.90
20566;DHT22;10441;50.884;12.064;2022-09-09T08:13:33;18.70;99.90
20566;DHT22;10441;50.884;12.064;2022-09-09T08:16:09;18.80;99.90
20566;DHT22;10441;50.884;12.064;2022-09-09T08:18:37;18.90;99.90
20566;DHT22;10441;50.884;12.064;2022-09-09T08:21:05;19.00;99.90
20566;DHT22;10441;50.884;12.064;2022-09-09T08:23:32;19.10;99.90
20566;DHT22;10441;50.884;12.064;2022-09-09T08:26:04;19.20;99.90
20566;DHT22;10441;50.884;12.064;2022-09-09T08:28:31;19.30;99.90
20566;DHT22;10441;50.884;12.064;2022-09-09T08:31:04;20.10;99.90
20566;DHT22;10441;50.884;12.064;2022-09-09T08:33:31;20.30;99.90
20566;DHT22;10441;50.884;12.064;2022-09-09T08:35:58;20.10;99.90
20566;DHT22;10441;50.884;12.064;2022-09-09T08:38:25;20.40;99.90
20566;DHT22;10441;50.884;12.064;2022-09-09T08:40:52;21.10;99.90
20566;DHT22;10441;50.884;12.064;2022-09-09T08:43:26;21.40;99.90
20566;DHT22;10441;50.884;12.064;2022-09-09T08:45:55;21.30;99.90
20566;DHT22;10441;50.884;12.064;2022-09-09T08:48:30;21.90;99.90
20566;DHT22;10441;50.884;12.064;2022-09-09T08:50:58;21.80;99.90
20566;DHT22;10441;50.884;12.064;2022-09-09T08:53:27;21.20;99.90
20566;DHT22;10441;50.884;12.064;2022-09-09T08:55:56;21.00;99.90
20566;DHT22;10441;50.884;12.064;2022-09-09T08:58:26;22.20;99.90
20566;DHT22;10441;50.884;12.064;2022-09-09T09:00:57;23.50;99.90
20566;DHT22;10441;50.884;12.064;2022-09-09T09:03:28;23.30;99.90
20566;DHT22;10441;50.884;12.064;2022-09-09T09:06:01;23.00;99.90
20566;DHT22;10441;50.884;12.064;2022-09-09T09:08:31;24.40;99.90
20566;DHT22;10441;50.884;12.064;2022-09-09T09:10:59;25.50;99.90
20566;DHT22;10441;50.884;12.064;2022-09-09T09:13:30;26.00;99.90
20566;DHT22;10441;50.884;12.064;2022-09-09T09:15:58;26.60;99.90
20566;DHT22;10441;50.884;12.064;2022-09-09T09:18:27;27.30;99.90
20566;DHT22;10441;50.884;12.064;2022-09-09T09:20:55;25.80;99.90
20566;DHT22;10441;50.884;12.064;2022-09-09T09:23:26;25.70;99.90
20566;DHT22;10441;50.884;12.064;2022-09-09T09:25:58;26.70;99.90
20566;DHT22;10441;50.884;12.064;2022-09-09T09:28:29;25.90;99.90
20566;DHT22;10441;50.884;12.064;2022-09-09T09:30:56;25.50;99.90
20566;DHT22;10441;50.884;12.064;2022-09-09T09:33:26;25.90;99.90
20566;DHT22;10441;50.884;12.064;2022-09-09T09:35:54;25.40;99.90
20566;DHT22;10441;50.884;12.064;2022-09-09T09:38:21;25.30;99.90
20566;DHT22;10441;50.884;12.064;2022-09-09T09:40:49;25.60;99.90
20566;DHT22;10441;50.884;12.064;2022-09-09T09:43:18;26.20;99.90
20566;DHT22;10441;50.884;12.064;2022-09-09T09:45:47;25.50;99.90
20566;DHT22;10441;50.884;12.064;2022-09-09T09:48:14;24.80;99.90
20566;DHT22;10441;50.884;12.064;2022-09-09T09:50:46;24.40;99.90
20566;DHT22;10441;50.884;12.064;2022-09-09T09:53:20;22.90;99.90
20566;DHT22;10441;50.884;12.064;2022-09-09T09:55:48;23.10;99.90
20566;DHT22;10441;50.884;12.064;2022-09-09T09:58:16;23.20;99.90
20566;DHT22;10441;50.884;12.064;2022-09-09T10:00:48;24.40;99.90
20566;DHT22;10441;50.884;12.064;2022-09-09T10:03:23;24.20;99.90
20566;DHT22;10441;50.884;12.064;2022-09-09T10:05:50;23.70;99.90
20566;DHT22;10441;50.884;12.064;2022-09-09T10:08:17;23.20;99.90
20566;DHT22;10441;50.884;12.064;2022-09-09T10:10:51;23.10;99.90
20566;DHT22;10441;50.884;12.064;2022-09-09T10:13:22;23.50;99.90
20566;DHT22;10441;50.884;12.064;2022-09-09T10:15:57;23.50;99.90
20566;DHT22;10441;50.884;12.064;2022-09-09T10:18:34;23.60;99.90
20566;DHT22;10441;50.884;12.064;2022-09-09T10:21:04;23.70;99.90
20566;DHT22;10441;50.884;12.064;2022-09-09T10:23:42;23.70;99.90
20566;DHT22;10441;50.884;12.064;2022-09-09T10:26:13;23.90;99.90
20566;DHT22;10441;50.884;12.064;2022-09-09T10:28:55;23.90;99.90
20566;DHT22;10441;50.884;12.064;2022-09-09T10:31:27;23.50;99.90
20566;DHT22;10441;50.884;12.064;2022-09-09T10:34:01;23.70;99.90
20566;DHT22;10441;50.884;12.064;2022-09-09T10:36:31;25.50;99.90
20566;DHT22;10441;50.884;12.064;2022-09-09T10:38:59;24.90;99.90
20566;DHT22;10441;50.884;12.064;2022-09-09T10:41:34;25.10;99.90
20566;DHT22;10441;50.884;12.064;2022-09-09T10:44:18;24.30;99.90
20566;DHT22;10441;50.884;12.064;2022-09-09T10:46:55;24.70;99.90
20566;DHT22;10441;50.884;12.064;2022-09-09T10:49:30;24.40;99.90
20566;DHT22;10441;50.884;12.064;2022-09-09T10:52:03;24.80;99.90
20566;DHT22;10441;50.884;12.064;2022-09-09T10:54:36;23.90;99.90
20566;DHT22;10441;50.884;12.064;2022-09-09T10:57:07;24.00;99.90
20566;DHT22;10441;50.884;12.064;2022-09-09T10:59:36;23.30;99.90
20566;DHT22;10441;50.884;12.064;2022-09-09T11:02:10;23.90;99.90
20566;DHT22;10441;50.884;12.064;2022-09-09T11:04:40;23.60;99.90
20566;DHT22;10441;50.884;12.064;2022-09-09T11:07:10;22.60;99.90
20566;DHT22;10441;50.884;12.064;2022-09-09T11:09:41;22.80;99.90
20566;DHT22;10441;50.884;12.064;2022-09-09T11:12:10;23.80;99.90
20566;DHT22;10441;50.884;12.064;2022-09-09T11:14:41;23.70;99.90
20566;DHT22;10441;50.884;12.064;2022-09-09T11:17:12;24.60;99.90
20566;DHT22;10441;50.884;12.064;2022-09-09T11:19:41;24.60;99.90
20566;DHT22;10441;50.884;12.064;2022-09-09T11:22:14;24.70;99.90
20566;DHT22;10441;50.884;12.064;2022-09-09T11:24:43;24.60;99.90
20566;DHT22;10441;50.884;12.064;2022-09-09T11:27:13;24.40;99.90
20566;DHT22;10441;50.884;12.064;2022-09-09T11:29:54;24.60;99.90
20566;DHT22;10441;50.884;12.064;2022-09-09T11:35:18;24.60;99.90
20566;DHT22;10441;50.884;12.064;2022-09-09T11:37:51;24.60;99.90
20566;DHT22;10441;50.884;12.064;2022-09-09T11:40:21;25.10;99.90
20566;DHT22;10441;50.884;12.064;2022-09-09T11:43:00;24.90;99.90
20566;DHT22;10441;50.884;12.064;2022-09-09T11:45:29;24.30;99.90
20566;DHT22;10441;50.884;12.064;2022-09-09T11:47:57;24.80;99.90
20566;DHT22;10441;50.884;12.064;2022-09-09T11:50:30;23.90;99.90
20566;DHT22;10441;50.884;12.064;2022-09-09T11:53:05;23.70;99.90
20566;DHT22;10441;50.884;12.064;2022-09-09T11:55:33;24.30;99.90
20566;DHT22;10441;50.884;12.064;2022-09-09T11:58:00;24.80;99.90
20566;DHT22;10441;50.884;12.064;2022-09-09T12:00:30;24.50;99.90
20566;DHT22;10441;50.884;12.064;2022-09-09T12:02:58;24.60;99.90
20566;DHT22;10441;50.884;12.064;2022-09-09T12:05:24;25.40;99.90
20566;DHT22;10441;50.884;12.064;2022-09-09T12:08:04;25.50;99.90
20566;DHT22;10441;50.884;12.064;2022-09-09T12:10:32;24.80;99.90
20566;DHT22;10441;50.884;12.064;2022-09-09T12:13:07;25.00;99.90
20566;DHT22;10441;50.884;12.064;2022-09-09T12:15:34;25.30;99.90
20566;DHT22;10441;50.884;12.064;2022-09-09T12:18:01;25.50;99.90
20566;DHT22;10441;50.884;12.064;2022-09-09T12:20:33;25.30;99.90
20566;DHT22;10441;50.884;12.064;2022-09-09T12:23:10;25.40;99.90
20566;DHT22;10441;50.884;12.064;2022-09-09T12:25:46;24.90;99.90
20566;DHT22;10441;50.884;12.064;2022-09-09T12:28:15;24.60;99.90
20566;DHT22;10441;50.884;12.064;2022-09-09T12:30:45;25.80;99.90
20566;DHT22;10441;50.884;12.064;2022-09-09T12:33:16;25.10;99.90
20566;DHT22;10441;50.884;12.064;2022-09-09T12:35:43;25.70;99.90
20566;DHT22;10441;50.884;12.064;2022-09-09T12:38:13;25.30;99.90
20566;DHT22;10441;50.884;12.064;2022-09-09T12:40:41;25.00;99.90
20566;DHT22;10441;50.884;12.064;2022-09-09T12:43:17;25.30;99.90
20566;DHT22;10441;50.884;12.064;2022-09-09T12:45:46;25.20;99.90
20566;DHT22;10441;50.884;12.064;2022-09-09T12:48:16;25.10;99.90
20566;DHT22;10441;50.884;12.064;2022-09-09T12:50:44;25.10;99.90
20566;DHT22;10441;50.884;12.064;2022-09-09T12:53:14;26.00;99.90
20566;DHT22;10441;50.884;12.064;2022-09-09T12:55:48;26.00;99.90
20566;DHT22;10441;50.884;12.064;2022-09-09T12:58:16;25.40;99.90
20566;DHT22;10441;50.884;12.064;2022-09-09T13:00:48;25.10;99.90
20566;DHT22;10441;50.884;12.064;2022-09-09T13:03:16;24.70;99.90
20566;DHT22;10441;50.884;12.064;2022-09-09T13:05:44;24.30;99.90
20566;DHT22;10441;50.884;12.064;2022-09-09T13:08:13;24.30;99.90
20566;DHT22;10441;50.884;12.064;2022-09-09T13:10:41;23.90;99.90
20566;DHT22;10441;50.884;12.064;2022-09-09T13:13:13;24.00;99.90
20566;DHT22;10441;50.884;12.064;2022-09-09T13:15:47;23.70;99.90
20566;DHT22;10441;50.884;12.064;2022-09-09T13:18:15;23.50;99.90
20566;DHT22;10441;50.884;12.064;2022-09-09T13:20:45;23.60;99.90
20566;DHT22;10441;50.884;12.064;2022-09-09T13:23:14;23.50;99.90
20566;DHT22;10441;50.884;12.064;2022-09-09T13:25:51;23.30;99.90
20566;DHT22;10441;50.884;12.064;2022-09-09T13:28:20;23.70;99.90
20566;DHT22;10441;50.884;12.064;2022-09-09T13:30:54;23.90;99.90
20566;DHT22;10441;50.884;12.064;2022-09-09T13:33:29;23.60;99.90
20566;DHT22;10441;50.884;12.064;2022-09-09T13:35:57;23.20;99.90
20566;DHT22;10441;50.884;12.064;2022-09-09T13:38:25;23.10;99.90
20566;DHT22;10441;50.884;12.064;2022-09-09T13:40:55;23.30;99.90
20566;DHT22;10441;50.884;12.064;2022-09-09T13:43:23;23.20;99.90
20566;DHT22;10441;50.884;12.064;2022-09-09T13:45:54;22.80;99.90
20566;DHT22;10441;50.884;12.064;2022-09-09T13:48:22;23.10;99.90
20566;DHT22;10441;50.884;12.064;2022-09-09T13:50:53;22.60;99.90
20566;DHT22;10441;50.884;12.064;2022-09-09T13:53:20;22.70;99.90
20566;DHT22;10441;50.884;12.064;2022-09-09T13:55:48;22.50;99.90
20566;DHT22;10441;50.884;12.064;2022-09-09T13:58:16;22.80;99.90
20566;DHT22;10441;50.884;12.064;2022-09-09T14:00:43;22.90;99.90
20566;DHT22;10441;50.884;12.064;2022-09-09T14:03:10;22.50;99.90
20566;DHT22;10441;50.884;12.064;2022-09-09T14:05:37;22.50;99.90
20566;DHT22;10441;50.884;12.064;2022-09-09T14:08:04;22.30;99.90
20566;DHT22;10441;50.884;12.064;2022-09-09T14:10:32;22.30;99.90
20566;DHT22;10441;50.884;12.064;2022-09-09T14:13:02;22.30;99.90
20566;DHT22;10441;50.884;12.064;2022-09-09T14:15:29;21.70;99.90
20566;DHT22;10441;50.884;12.064;2022-09-09T14:17:55;21.90;99.90
20566;DHT22;10441;50.884;12.064;2022-09-09T14:20:24;21.50;99.90
20566;DHT22;10441;50.884;12.064;2022-09-09T14:22:51;21.90;99.90
20566;DHT22;10441;50.884;12.064;2022-09-09T14:25:18;22.00;99.90
20566;DHT22;10441;50.884;12.064;2022-09-09T14:27:45;22.40;99.90
20566;DHT22;10441;50.884;12.064;2022-09-09T14:30:14;22.40;99.90
20566;DHT22;10441;50.884;12.064;2022-09-09T14:32:40;22.50;99.90
20566;DHT22;10441;50.884;12.064;2022-09-09T14:35:08;24.00;99.90
20566;DHT22;10441;50.884;12.064;2022-09-09T14:37:34;24.90;99.90
20566;DHT22;10441;50.884;12.064;2022-09-09T14:40:01;25.50;99.90
20566;DHT22;10441;50.884;12.064;2022-09-09T14:42:28;24.00;99.90
20566;DHT22;10441;50.884;12.064;2022-09-09T14:44:55;23.20;99.90
20566;DHT22;10441;50.884;12.064;2022-09-09T14:47:23;23.20;99.90
20566;DHT22;10441;50.884;12.064;2022-09-09T14:49:51;23.40;99.90
20566;DHT22;10441;50.884;12.064;2022-09-09T14:52:18;22.40;99.90
20566;DHT22;10441;50.884;12.064;2022-09-09T14:54:45;22.10;99.90
20566;DHT22;10441;50.884;12.064;2022-09-09T14:57:12;22.00;99.90
20566;DHT22;10441;50.884;12.064;2022-09-09T14:59:39;22.30;99.90
20566;DHT22;10441;50.884;12.064;2022-09-09T15:02:07;25.00;99.90
20566;DHT22;10441;50.884;12.064;2022-09-09T15:04:39;23.50;99.90
20566;DHT22;10441;50.884;12.064;2022-09-09T15:07:07;22.90;99.90
20566;DHT22;10441;50.884;12.064;2022-09-09T15:09:35;22.50;99.90
20566;DHT22;10441;50.884;12.064;2022-09-09T15:12:03;22.40;99.90
20566;DHT22;10441;50.884;12.064;2022-09-09T15:14:32;21.90;99.90
20566;DHT22;10441;50.884;12.064;2022-09-09T15:17:00;21.90;99.90
20566;DHT22;10441;50.884;12.064;2022-09-09T15:19:27;21.80;99.90
20566;DHT22;10441;50.884;12.064;2022-09-09T15:21:55;21.50;99.90
20566;DHT22;10441;50.884;12.064;2022-09-09T15:24:22;21.30;99.90
20566;DHT22;10441;50.884;12.064;2022-09-09T15:26:49;21.40;99.90
20566;DHT22;10441;50.884;12.064;2022-09-09T15:29:16;21.10;99.90
20566;DHT22;10441;50.884;12.064;2022-09-09T15:31:43;20.90;99.90
20566;DHT22;10441;50.884;12.064;2022-09-09T15:34:10;21.00;99.90
20566;DHT22;10441;50.884;12.064;2022-09-09T15:36:39;20.80;99.90